You are not logged in, Click here to log in
ICAO: KSLC Country: 美國猶他州鹽湖城以西大約6.4公里的機場
Latitude: 40.7884 Longitude: -111.978
Total Arrivals: 6 Total Departures: 5
Latest Arrival: FS29 (KMSP-KSLC)ALAN. LIU Latest Departure: DL1957 (KSLC-KSEA)ALAN. LIU
Scenery: http://forums.x-plane.org/index.php?/files/file/11854-kslc-salt-lake-city-international-airport/
METAR : KSLC 210654Z 15007KT 10SM CLR 24/M01 A3000 RMK AO2 SLP095 T02391011 403670217

鹽湖城國際機場SLC